Applegate, Michigan
Current Conditions -  °F | °C
As of 6:00 PM on Monday 22 Dec 2014 (Local Time) from CYZR Reporting Station
Broken Clouds Broken Clouds  
Wind Chill: -5°   Ceiling: 23000
Heat Index:   Visibility: 9mi
Dew Point: -2°   Wind: 10mph
Humidity: 87%   Direction: 120°ESE
Pressure: 29.97"   Gusts: NA
Location:  43.36°N, 82.64°W
Report Text: CYZR 222300Z AUTO 12009KT 9SM SCT190 BKN230 00/M02 A2997 RMK SLP155
Loading
Personal Weather Stations






























Interactive Weather Map New forecast layout! Learn more

10-Day Weather Forecast

Advertisements
Track Severe Weather on mobile